Danbury, IA

5:22 PM CDT on May 25, 2015 (GMT -0500)
Cherokee Municipal | | Change Station
CLOSE
Current Station
Airport
Location: Cherokee,
Elevation: 1227 ft
Nearby Weather Stations

Elev 1227 ft 42.73 °N, 95.56 °W | Updated 7 minutes ago

Partly Cloudy
Partly Cloudy
76 °F
Feels Like 76 °F
N
13
Wind Variable Wind from SSW
Gusts 21 mph

Today
High -- | Low -- °F
--% Chance of Precip.
Yesterday
High -- | Low -- °F
Precip. -- in
5:53 AM 8:46 PM
First Quarter, 52% visible
Pressure 29.76 in
Visibility 10.0 miles
Clouds Scattered Clouds 6000 ft
Scattered Clouds 9000 ft
Dew Point 55 °F
Humidity 48%
Rainfall 0.00 in
Snow Depth Not available.
UV 4 out of 12
Pollen 2.30 out of 12
Air Quality Not available.
Flu Activity Sporadic
METAR KCKP 252215Z AUTO 20011G18KT 10SM SCT060 SCT090 25/13 A2976 RMK AO2 T02460129

More Conditions Fewer Conditions

Pressure 29.76 in
Visibility 10.0 miles
Clouds Scattered Clouds 6000 ft
Scattered Clouds 9000 ft
Dew Point 55 °F
Humidity 48%
Rainfall 0.00 in
Snow Depth Not available.
UV 4 out of 12
Pollen 2.30 out of 12
Air Quality Not available.
Flu Activity Sporadic
METAR KCKP 252215Z AUTO 20011G18KT 10SM SCT060 SCT090 25/13 A2976 RMK AO2 T02460129

More Conditions Fewer Conditions

10-Day Weather Forecast

Almanac

Astronomy

May. 25, 2015 Rise Set
Actual Time
Civil Twilight
Nautical Twilight
Astronomical Twilight
Moon
Length of Visible Light
Length of Day
Tomorrow will be .
, % of the Moon is Illuminated

Today's Extremes

State Highs State Lows

Community

WunderPhotos

Upload Photos

1,824,149 photos uploaded!

WunderBlogs® & News

Nearby

Air Quality

  Air Quality AQ Index Pollutant
Not available.

Snow Depth

Station Depth Elevation

Earthquake Activity

City Distance Mag. Time & Date
Minimum magnitude displayed is 2.5.

Coastal Water Temperatures

Place Temperature

Stations

Nearby Weather Stations

Station Location Temp. Windchill Dew Point Humidity Wind Precip. Elev Updated Type